createdAt,value
2023-02-05T00:00:20.286Z,103550.16
2023-02-05T00:02:52.883Z,103539.53
2023-02-05T00:05:22.809Z,103528.16
2023-02-05T00:07:52.630Z,103525.38
2023-02-05T00:10:22.553Z,103538.19
2023-02-05T00:12:52.347Z,103537.28
2023-02-05T00:15:22.275Z,103536.31
2023-02-05T00:17:54.656Z,103537.38
2023-02-05T00:20:24.561Z,103537.53
2023-02-05T00:22:57.781Z,103542.13
2023-02-05T00:25:27.691Z,103531.19
2023-02-05T00:27:57.490Z,103520.84
2023-02-05T00:30:28.624Z,103505.16
2023-02-05T00:33:01.082Z,103506.06
2023-02-05T00:35:30.923Z,103510.38
2023-02-05T00:38:00.732Z,103500.72
2023-02-05T00:40:30.497Z,103517.16
2023-02-05T00:43:00.313Z,103519.03
2023-02-05T00:45:35.245Z,103517.31
2023-02-05T00:48:08.648Z,103530.41
2023-02-05T00:50:38.678Z,103540.22
2023-02-05T00:53:10.234Z,103524.69
2023-02-05T00:55:40.102Z,103521.28
2023-02-05T00:58:09.973Z,103507.41
2023-02-05T01:00:39.936Z,103518.00
2023-02-05T01:03:12.528Z,103510.31
2023-02-05T01:05:43.011Z,103500.75
2023-02-05T01:08:14.799Z,103501.03
2023-02-05T01:10:47.474Z,103506.25
2023-02-05T01:13:18.317Z,103513.31
2023-02-05T01:15:48.603Z,103510.84
2023-02-05T01:18:21.409Z,103501.31
2023-02-05T01:20:51.311Z,103487.44
2023-02-05T01:23:21.100Z,103484.84
2023-02-05T01:25:51.202Z,103484.03
2023-02-05T01:28:21.171Z,103494.66
2023-02-05T01:30:52.098Z,103491.25
2023-02-05T01:33:24.527Z,103490.47
2023-02-05T01:35:54.300Z,103476.72
2023-02-05T01:38:24.114Z,103471.50
2023-02-05T01:40:54.093Z,103469.81
2023-02-05T01:43:24.134Z,103463.63
2023-02-05T01:46:08.657Z,103457.50
2023-02-05T01:48:45.647Z,103463.63
2023-02-05T01:51:18.750Z,103466.41
2023-02-05T01:53:51.396Z,103456.72
2023-02-05T01:56:25.167Z,103462.72
2023-02-05T01:58:59.994Z,103469.53
2023-02-05T02:01:30.866Z,103465.09
2023-02-05T02:04:04.998Z,103465.34
2023-02-05T02:06:36.616Z,103467.06
2023-02-05T02:09:09.661Z,103453.06
2023-02-05T02:11:43.670Z,103452.25
2023-02-05T02:14:14.875Z,103443.66
2023-02-05T02:16:44.830Z,103432.22
2023-02-05T02:19:24.278Z,103440.22
2023-02-05T02:22:15.398Z,103429.91
2023-02-05T02:25:20.855Z,103434.19
2023-02-05T02:27:57.554Z,103424.53
2023-02-05T02:30:31.989Z,103413.25
2023-02-05T02:33:10.024Z,103413.25
2023-02-05T02:35:47.144Z,103400.31
2023-02-05T02:38:24.087Z,103396.00
2023-02-05T02:40:56.869Z,103400.47
2023-02-05T02:43:34.291Z,103385.81
2023-02-05T02:46:08.403Z,103379.78
2023-02-05T02:48:50.878Z,103386.09
2023-02-05T02:51:25.316Z,103386.19
2023-02-05T02:53:58.802Z,103391.44
2023-02-05T02:56:32.266Z,103398.38
2023-02-05T02:59:09.218Z,103405.47
2023-02-05T03:01:52.345Z,103409.91
2023-02-05T03:04:28.601Z,103414.25
2023-02-05T03:07:03.250Z,103416.22
2023-02-05T03:09:43.148Z,103409.25
2023-02-05T03:12:13.034Z,103398.78
2023-02-05T03:14:45.647Z,103410.19
2023-02-05T03:17:18.862Z,103385.69
2023-02-05T03:19:49.570Z,103388.16
2023-02-05T03:22:19.415Z,103385.56
2023-02-05T03:24:49.162Z,103391.84
2023-02-05T03:27:19.043Z,103393.72
2023-02-05T03:29:52.819Z,103381.53
2023-02-05T03:32:38.101Z,103379.03
2023-02-05T03:35:29.442Z,103375.63
2023-02-05T03:38:14.250Z,103374.72
2023-02-05T03:40:50.848Z,103370.41
2023-02-05T03:43:34.960Z,103372.22
2023-02-05T03:46:18.072Z,103370.66
2023-02-05T03:49:04.512Z,103374.34
2023-02-05T03:51:42.217Z,103373.69
2023-02-05T03:54:19.768Z,103367.66
2023-02-05T03:56:58.246Z,103373.81
2023-02-05T03:59:29.574Z,103363.22
2023-02-05T04:02:04.847Z,103361.50
2023-02-05T04:04:34.637Z,103365.94
2023-02-05T04:07:05.321Z,103357.31
2023-02-05T04:09:35.114Z,103364.38
2023-02-05T04:12:04.882Z,103364.53
2023-02-05T04:14:34.630Z,103358.38
2023-02-05T04:17:07.824Z,103353.25
2023-02-05T04:19:37.662Z,103348.94
2023-02-05T04:22:07.423Z,103348.16
2023-02-05T04:24:37.168Z,103343.84
2023-02-05T04:27:06.979Z,103347.50
2023-02-05T04:29:36.702Z,103347.66
2023-02-05T04:32:09.104Z,103340.81
2023-02-05T04:34:38.854Z,103340.81
2023-02-05T04:37:08.765Z,103342.78
2023-02-05T04:39:38.517Z,103340.16
2023-02-05T04:42:08.552Z,103346.34
2023-02-05T04:44:38.307Z,103340.31
2023-02-05T04:47:10.780Z,103349.97
2023-02-05T04:49:40.948Z,103352.50
2023-02-05T04:52:10.890Z,103355.22
2023-02-05T04:54:40.972Z,103352.59
2023-02-05T04:57:10.854Z,103354.56
2023-02-05T04:59:40.858Z,103349.31
2023-02-05T05:02:13.294Z,103367.00
2023-02-05T05:04:43.372Z,103367.66
2023-02-05T05:07:13.380Z,103363.06
2023-02-05T05:09:43.289Z,103362.06
2023-02-05T05:12:13.050Z,103349.47
2023-02-05T05:14:42.894Z,103368.31
2023-02-05T05:17:15.449Z,103369.63
2023-02-05T05:19:45.506Z,103374.06
2023-02-05T05:22:15.323Z,103366.72
2023-02-05T05:24:45.164Z,103370.66
2023-02-05T05:27:15.008Z,103373.66
2023-02-05T05:29:45.058Z,103374.94
2023-02-05T05:32:17.580Z,103378.06
2023-02-05T05:34:47.868Z,103383.03
2023-02-05T05:37:17.645Z,103377.13
2023-02-05T05:39:59.790Z,103371.31
2023-02-05T05:42:41.957Z,103372.63
2023-02-05T05:45:12.247Z,103372.72
2023-02-05T05:47:44.647Z,103380.97
2023-02-05T05:50:14.476Z,103376.22
2023-02-05T05:52:44.407Z,103390.59
2023-02-05T05:55:14.200Z,103387.31
2023-02-05T05:57:43.951Z,103379.22
2023-02-05T06:00:15.789Z,103383.66
2023-02-05T06:02:48.160Z,103384.44
2023-02-05T06:05:17.929Z,103386.91
2023-02-05T06:07:47.706Z,103379.97
2023-02-05T06:10:17.526Z,103387.69
2023-02-05T06:12:47.272Z,103398.44
2023-02-05T06:15:17.142Z,103399.06
2023-02-05T06:17:49.651Z,103403.50
2023-02-05T06:20:19.591Z,103411.66
2023-02-05T06:22:49.385Z,103408.88
2023-02-05T06:25:19.175Z,103403.66
2023-02-05T06:27:48.994Z,103402.59
2023-02-05T06:30:19.039Z,103406.28
2023-02-05T06:32:51.490Z,103402.47
2023-02-05T06:35:22.848Z,103413.97
2023-02-05T06:37:52.621Z,103413.06
2023-02-05T06:40:22.568Z,103409.94
2023-02-05T06:42:52.379Z,103410.88
2023-02-05T06:45:22.500Z,103407.97
2023-02-05T06:47:56.251Z,103424.44
2023-02-05T06:50:26.276Z,103430.59
2023-02-05T06:52:56.322Z,103425.38
2023-02-05T06:55:26.209Z,103425.06
2023-02-05T06:57:56.005Z,103430.94
2023-02-05T07:00:26.205Z,103432.66
2023-02-05T07:02:58.711Z,103425.72
2023-02-05T07:05:28.527Z,103430.81
2023-02-05T07:07:59.903Z,103442.03
2023-02-05T07:10:29.691Z,103444.66
2023-02-05T07:12:59.518Z,103459.59
2023-02-05T07:15:29.313Z,103458.03
2023-02-05T07:18:01.664Z,103460.78
2023-02-05T07:20:31.486Z,103474.00
2023-02-05T07:23:01.239Z,103479.34
2023-02-05T07:25:36.550Z,103483.03
2023-02-05T07:28:06.912Z,103486.56
2023-02-05T07:30:36.709Z,103491.03
2023-02-05T07:33:09.847Z,103485.81
2023-02-05T07:35:40.935Z,103496.25
2023-02-05T07:38:11.049Z,103518.09
2023-02-05T07:40:42.482Z,103516.56
2023-02-05T07:43:12.307Z,103533.44
2023-02-05T07:45:42.023Z,103539.47
2023-02-05T07:48:14.463Z,103534.22
2023-02-05T07:50:47.115Z,103533.44
2023-02-05T07:53:17.252Z,103544.97
2023-02-05T07:55:47.076Z,103549.13
2023-02-05T07:58:17.204Z,103544.97
2023-02-05T08:00:47.246Z,103554.63
2023-02-05T08:03:19.625Z,103559.09
2023-02-05T08:05:49.432Z,103567.44
2023-02-05T08:08:19.347Z,103571.59
2023-02-05T08:10:49.187Z,103573.31
2023-02-05T08:13:18.964Z,103566.38
2023-02-05T08:15:50.758Z,103581.03
2023-02-05T08:18:23.126Z,103593.59
2023-02-05T08:20:55.432Z,103588.81
2023-02-05T08:23:25.334Z,103595.22
2023-02-05T08:25:56.931Z,103598.16
2023-02-05T08:28:28.052Z,103618.56
2023-02-05T08:30:58.964Z,103623.31
2023-02-05T08:33:31.660Z,103629.91
2023-02-05T08:36:01.558Z,103629.25
2023-02-05T08:38:31.304Z,103623.25
2023-02-05T08:41:01.114Z,103626.28
2023-02-05T08:43:31.023Z,103609.81
2023-02-05T08:46:00.956Z,103637.03
2023-02-05T08:48:33.491Z,103655.34
2023-02-05T08:51:03.942Z,103639.81
2023-02-05T08:53:33.810Z,103640.09
2023-02-05T08:56:06.584Z,103643.59
2023-02-05T08:58:36.571Z,103644.69
2023-02-05T09:01:08.704Z,103663.00
2023-02-05T09:03:41.649Z,103660.53
2023-02-05T09:06:13.752Z,103666.69
2023-02-05T09:08:46.969Z,103669.59
2023-02-05T09:11:17.072Z,103693.28
2023-02-05T09:13:46.848Z,103698.97
2023-02-05T09:16:16.762Z,103695.13
2023-02-05T09:18:49.338Z,103697.03
2023-02-05T09:21:19.088Z,103709.13
2023-02-05T09:23:49.072Z,103722.75
2023-02-05T09:26:18.933Z,103720.22
2023-02-05T09:28:48.983Z,103717.16
2023-02-05T09:31:20.244Z,103712.94
2023-02-05T09:33:52.756Z,103722.19
2023-02-05T09:36:24.530Z,103712.28
2023-02-05T09:39:11.747Z,103712.09
2023-02-05T09:41:50.125Z,103718.06
2023-02-05T09:44:30.310Z,103736.19
2023-02-05T09:47:08.596Z,103747.81
2023-02-05T09:49:46.786Z,103740.50
2023-02-05T09:52:22.774Z,103734.44
2023-02-05T09:54:58.240Z,103740.22
2023-02-05T09:57:35.766Z,103723.22
2023-02-05T10:00:08.404Z,103735.56
2023-02-05T10:02:48.027Z,103745.03
2023-02-05T10:05:25.022Z,103781.22
2023-02-05T10:08:01.791Z,103778.22
2023-02-05T10:10:39.468Z,103795.34
2023-02-05T10:13:30.311Z,103787.09
2023-02-05T10:16:20.951Z,103791.47
2023-02-05T10:19:06.522Z,103809.66
2023-02-05T10:21:59.113Z,103787.47
2023-02-05T10:24:48.740Z,103785.72
2023-02-05T10:27:23.688Z,103792.72
2023-02-05T10:30:03.712Z,103797.13
2023-02-05T10:32:43.089Z,103806.31
2023-02-05T10:35:26.582Z,103806.75
2023-02-05T10:37:59.958Z,103812.28
2023-02-05T10:40:35.321Z,103809.47
2023-02-05T10:43:13.554Z,103812.34
2023-02-05T10:45:43.322Z,103818.66
2023-02-05T10:48:32.031Z,103825.25
2023-02-05T10:51:04.854Z,103835.25
2023-02-05T10:53:37.882Z,103839.06
2023-02-05T10:56:09.173Z,103834.13
2023-02-05T10:58:47.170Z,103836.41
2023-02-05T11:01:19.952Z,103840.38
2023-02-05T11:03:56.892Z,103843.03
2023-02-05T11:06:29.479Z,103842.84
2023-02-05T11:09:02.398Z,103834.03
2023-02-05T11:11:34.914Z,103828.94
2023-02-05T11:14:08.983Z,103832.78
2023-02-05T11:16:41.800Z,103841.69
2023-02-05T11:19:24.212Z,103832.41
2023-02-05T11:21:57.379Z,103829.25
2023-02-05T11:24:42.697Z,103818.28
2023-02-05T11:27:33.484Z,103822.72
2023-02-05T11:30:42.109Z,103821.06
2023-02-05T11:33:28.519Z,103822.22
2023-02-05T11:36:01.062Z,103831.63
2023-02-05T11:38:39.852Z,103831.91
2023-02-05T11:41:13.634Z,103835.69
2023-02-05T11:43:51.777Z,103830.75
2023-02-05T11:46:24.195Z,103840.44
2023-02-05T11:49:00.519Z,103839.38
2023-02-05T11:51:44.674Z,103828.13
2023-02-05T11:54:22.506Z,103834.94
2023-02-05T11:57:27.075Z,103835.69
2023-02-05T11:59:59.927Z,103838.06
2023-02-05T12:02:36.150Z,103832.16
2023-02-05T12:05:15.764Z,103834.94
2023-02-05T12:07:51.390Z,103843.34
2023-02-05T12:10:28.916Z,103836.03
2023-02-05T12:13:10.104Z,103846.81
2023-02-05T12:15:47.736Z,103842.47
2023-02-05T12:18:29.563Z,103838.28
2023-02-05T12:21:14.610Z,103842.25
2023-02-05T12:24:07.785Z,103843.28
2023-02-05T12:26:41.119Z,103845.50
2023-02-05T12:29:32.317Z,103856.91
2023-02-05T12:32:09.201Z,103867.03
2023-02-05T12:34:48.657Z,103870.03
2023-02-05T12:37:36.361Z,103865.69
2023-02-05T12:40:19.168Z,103874.38
2023-02-05T12:42:55.228Z,103874.88
2023-02-05T12:45:51.100Z,103878.56
2023-02-05T12:48:40.171Z,103885.53
2023-02-05T12:51:24.656Z,103887.34
2023-02-05T12:54:05.930Z,103885.63
2023-02-05T12:56:52.335Z,103888.25
2023-02-05T12:59:33.790Z,103892.88
2023-02-05T13:02:10.144Z,103898.91
2023-02-05T13:04:44.340Z,103886.44
2023-02-05T13:07:29.387Z,103896.66
2023-02-05T13:10:03.333Z,103892.47
2023-02-05T13:12:38.613Z,103863.72
2023-02-05T13:15:19.592Z,103897.94
2023-02-05T13:18:00.160Z,103892.28
2023-02-05T13:20:47.412Z,103888.31
2023-02-05T13:23:30.426Z,103896.97
2023-02-05T13:26:13.057Z,103903.91
2023-02-05T13:28:47.729Z,103901.28
2023-02-05T13:31:30.650Z,103909.47
2023-02-05T13:34:06.897Z,103894.22
2023-02-05T13:36:56.149Z,103897.91
2023-02-05T13:40:04.899Z,103894.47
2023-02-05T13:43:13.999Z,103897.59
2023-02-05T13:46:26.265Z,103908.88
2023-02-05T13:49:30.034Z,103908.88
2023-02-05T13:52:21.449Z,103901.66
2023-02-05T13:55:18.993Z,103911.06
2023-02-05T13:58:20.531Z,103922.22
2023-02-05T14:01:01.396Z,103915.13
2023-02-05T14:03:41.250Z,103903.28
2023-02-05T14:06:30.159Z,103916.88
2023-02-05T14:09:04.361Z,103912.25
2023-02-05T14:11:55.959Z,103918.56
2023-02-05T14:14:31.696Z,103909.78
2023-02-05T14:17:03.060Z,103913.19
2023-02-05T14:19:58.533Z,103921.84
2023-02-05T14:22:44.829Z,103932.16
2023-02-05T14:25:50.550Z,103942.66
2023-02-05T14:28:48.171Z,103947.50
2023-02-05T14:31:48.823Z,103950.13
2023-02-05T14:34:49.301Z,103945.00
2023-02-05T14:37:33.892Z,103953.03
2023-02-05T14:40:25.075Z,103948.06
2023-02-05T14:43:09.522Z,103951.47
2023-02-05T14:45:46.632Z,103951.81
2023-02-05T14:48:29.427Z,103957.19
2023-02-05T14:51:08.625Z,103964.00
2023-02-05T14:53:39.967Z,103965.88
2023-02-05T14:56:31.732Z,103961.38
2023-02-05T14:59:07.432Z,103956.94
2023-02-05T15:01:50.840Z,103958.75
2023-02-05T15:04:42.842Z,103959.38
2023-02-05T15:07:16.453Z,103963.56
2023-02-05T15:09:50.793Z,103966.06
2023-02-05T15:12:51.571Z,103970.06
2023-02-05T15:15:33.707Z,103982.28
2023-02-05T15:18:25.035Z,103989.84
2023-02-05T15:20:57.672Z,103983.25
2023-02-05T15:23:37.976Z,103980.03
2023-02-05T15:26:10.319Z,103986.53
2023-02-05T15:28:45.352Z,104001.69
2023-02-05T15:31:32.000Z,104003.88
2023-02-05T15:34:09.235Z,103999.44
2023-02-05T15:36:46.143Z,104005.13
2023-02-05T15:39:24.311Z,104031.34
2023-02-05T15:41:58.007Z,104019.66
2023-02-05T15:44:33.863Z,104015.97
2023-02-05T15:47:06.617Z,104018.41
2023-02-05T15:49:41.130Z,104005.81
2023-02-05T15:52:11.247Z,104013.22
2023-02-05T15:54:41.047Z,104019.56
2023-02-05T15:57:16.132Z,104024.22
2023-02-05T15:59:48.630Z,104026.84
2023-02-05T16:02:21.407Z,104039.78
2023-02-05T16:04:58.477Z,104044.72
2023-02-05T16:07:32.535Z,104042.38
2023-02-05T16:10:05.008Z,104041.59
2023-02-05T16:12:34.784Z,104058.72
2023-02-05T16:15:09.803Z,104059.34
2023-02-05T16:17:45.752Z,104060.13
2023-02-05T16:20:26.804Z,104064.91
2023-02-05T16:23:00.047Z,104071.06
2023-02-05T16:25:40.006Z,104074.47
2023-02-05T16:28:16.452Z,104079.56
2023-02-05T16:30:53.057Z,104076.16
2023-02-05T16:33:33.600Z,104079.56
2023-02-05T16:36:05.972Z,104087.56
2023-02-05T16:38:38.488Z,104089.84
2023-02-05T16:41:27.103Z,104095.88
2023-02-05T16:43:58.735Z,104096.34
2023-02-05T16:46:32.467Z,104109.28
2023-02-05T16:49:03.727Z,104104.69
2023-02-05T16:51:37.853Z,104102.34
2023-02-05T16:54:30.211Z,104096.06
2023-02-05T16:57:06.064Z,104106.97
2023-02-05T16:59:43.368Z,104108.38
2023-02-05T17:02:29.320Z,104105.13
2023-02-05T17:05:01.662Z,104111.16
2023-02-05T17:07:33.201Z,104113.59
2023-02-05T17:10:20.092Z,104114.50
2023-02-05T17:12:58.777Z,104111.47
2023-02-05T17:15:42.624Z,104111.59
2023-02-05T17:18:31.111Z,104114.38
2023-02-05T17:21:26.811Z,104110.69
2023-02-05T17:23:59.567Z,104116.69
2023-02-05T17:26:43.577Z,104119.44
2023-02-05T17:29:18.686Z,104117.00
2023-02-05T17:31:48.630Z,104128.22
2023-02-05T17:34:21.200Z,104135.94
2023-02-05T17:36:51.665Z,104140.09
2023-02-05T17:39:21.723Z,104141.91
2023-02-05T17:42:08.783Z,104146.41
2023-02-05T17:45:01.392Z,104147.00
2023-02-05T17:47:46.793Z,104154.56
2023-02-05T17:50:20.294Z,104149.00
2023-02-05T17:52:50.173Z,104153.47
2023-02-05T17:55:22.610Z,104137.91
2023-02-05T17:57:52.402Z,104156.22
2023-02-05T18:00:25.091Z,104153.63
2023-02-05T18:02:55.576Z,104154.41
2023-02-05T18:05:32.543Z,104158.53
2023-02-05T18:08:03.407Z,104160.06
2023-02-05T18:10:35.222Z,104163.59
2023-02-05T18:13:05.661Z,104168.09
2023-02-05T18:15:35.974Z,104165.16
2023-02-05T18:18:05.985Z,104167.00
2023-02-05T18:20:39.087Z,104178.38
2023-02-05T18:23:10.903Z,104175.78
2023-02-05T18:25:42.212Z,104171.31
2023-02-05T18:31:13.275Z,104164.38
2023-02-05T18:33:43.545Z,104178.69
2023-02-05T18:36:17.658Z,104172.66
2023-02-05T18:38:47.616Z,104164.50
2023-02-05T18:41:19.674Z,104173.59
2023-02-05T18:43:49.602Z,104163.28
2023-02-05T18:46:21.307Z,104165.13
2023-02-05T18:48:52.168Z,104171.16
2023-02-05T18:51:27.543Z,104172.66
2023-02-05T18:53:57.636Z,104173.13
2023-02-05T18:56:29.722Z,104180.97
2023-02-05T18:59:03.166Z,104183.56
2023-02-05T19:01:41.359Z,104183.13
2023-02-05T19:04:34.232Z,104175.91
2023-02-05T19:07:06.820Z,104189.28
2023-02-05T19:09:37.125Z,104198.97
2023-02-05T19:12:07.572Z,104212.97
2023-02-05T19:14:37.550Z,104213.13
2023-02-05T19:17:08.015Z,104196.50
2023-02-05T19:19:37.923Z,104199.88
2023-02-05T19:22:10.911Z,104201.75
2023-02-05T19:24:40.863Z,104207.59
2023-02-05T19:27:10.835Z,104212.22
2023-02-05T19:29:41.305Z,104205.28
2023-02-05T19:32:11.314Z,104214.97
2023-02-05T19:34:43.464Z,104204.50
2023-02-05T19:37:15.977Z,104211.44
2023-02-05T19:39:49.198Z,104214.22
2023-02-05T19:42:19.060Z,104212.84
2023-02-05T19:44:48.865Z,104213.75
2023-02-05T19:47:19.012Z,104230.53
2023-02-05T19:49:48.874Z,104233.16
2023-02-05T19:52:21.219Z,104220.25
2023-02-05T19:54:50.990Z,104239.78
2023-02-05T19:57:20.789Z,104238.09
2023-02-05T19:59:51.001Z,104242.56
2023-02-05T20:02:21.119Z,104239.31
2023-02-05T20:04:51.010Z,104243.91
2023-02-05T20:07:23.609Z,104248.84
2023-02-05T20:09:53.459Z,104259.28
2023-02-05T20:12:23.472Z,104267.28
2023-02-05T20:14:53.360Z,104258.38
2023-02-05T20:17:23.258Z,104254.66
2023-02-05T20:20:02.521Z,104252.66
2023-02-05T20:22:41.708Z,104254.00
2023-02-05T20:25:11.943Z,104258.31
2023-02-05T20:27:41.852Z,104261.72
2023-02-05T20:30:30.610Z,104251.84
2023-02-05T20:33:00.572Z,104243.84
2023-02-05T20:35:31.594Z,104235.22
2023-02-05T20:38:04.539Z,104233.38
2023-02-05T20:40:34.610Z,104236.16
2023-02-05T20:43:07.240Z,104246.75
2023-02-05T20:45:37.279Z,104247.38
2023-02-05T20:48:07.547Z,104248.16
2023-02-05T20:50:37.520Z,104251.69
2023-02-05T20:53:10.316Z,104250.00
2023-02-05T20:55:40.285Z,104250.59
2023-02-05T20:58:10.227Z,104245.03
2023-02-05T21:00:40.478Z,104249.69
2023-02-05T21:03:10.433Z,104256.44
2023-02-05T21:05:40.403Z,104256.13
2023-02-05T21:08:13.189Z,104259.31
2023-02-05T21:10:43.097Z,104253.91
2023-02-05T21:13:13.046Z,104257.31
2023-02-05T21:15:42.966Z,104251.91
2023-02-05T21:18:13.671Z,104254.53
2023-02-05T21:20:43.535Z,104258.09
2023-02-05T21:23:16.168Z,104253.91
2023-02-05T21:25:46.756Z,104258.25
2023-02-05T21:28:18.974Z,104260.72
2023-02-05T21:30:51.237Z,104264.06
2023-02-05T21:33:21.294Z,104273.44
2023-02-05T21:35:51.052Z,104275.13
2023-02-05T21:38:23.409Z,104285.44
2023-02-05T21:40:54.001Z,104284.34
2023-02-05T21:43:23.748Z,104285.88
2023-02-05T21:45:53.546Z,104291.09
2023-02-05T21:48:23.395Z,104292.63
2023-02-05T21:50:53.194Z,104295.22
2023-02-05T21:53:25.577Z,104291.09
2023-02-05T21:55:55.382Z,104294.81
2023-02-05T21:58:25.272Z,104300.94
2023-02-05T22:00:55.112Z,104294.81
2023-02-05T22:03:24.891Z,104303.16
2023-02-05T22:05:54.681Z,104304.97
2023-02-05T22:08:27.097Z,104299.16
2023-02-05T22:10:56.837Z,104301.00
2023-02-05T22:13:26.678Z,104303.97
2023-02-05T22:16:04.722Z,104304.41
2023-02-05T22:18:34.535Z,104307.97
2023-02-05T22:21:12.186Z,104301.78
2023-02-05T22:23:48.979Z,104304.28
2023-02-05T22:26:19.970Z,104304.41
2023-02-05T22:28:49.978Z,104302.56
2023-02-05T22:31:21.505Z,104306.28
2023-02-05T22:33:52.594Z,104303.38
2023-02-05T22:36:24.017Z,104306.31
2023-02-05T22:38:56.951Z,104309.09
2023-02-05T22:41:30.077Z,104295.84
2023-02-05T22:44:01.640Z,104285.41
2023-02-05T22:46:33.567Z,104291.41
2023-02-05T22:49:05.091Z,104295.53
2023-02-05T22:51:37.513Z,104296.47
2023-02-05T22:54:10.980Z,104286.78
2023-02-05T22:56:41.338Z,104282.16
2023-02-05T22:59:11.426Z,104274.00
2023-02-05T23:01:41.951Z,104269.50
2023-02-05T23:04:12.836Z,104278.13
2023-02-05T23:06:45.292Z,104275.50
2023-02-05T23:09:20.765Z,104265.06
2023-02-05T23:11:50.652Z,104261.34
2023-02-05T23:14:21.572Z,104261.66
2023-02-05T23:16:51.697Z,104266.13
2023-02-05T23:19:23.241Z,104260.13
2023-02-05T23:21:53.111Z,104249.69
2023-02-05T23:24:25.504Z,104249.69
2023-02-05T23:26:55.575Z,104242.91
2023-02-05T23:29:27.185Z,104250.16
2023-02-05T23:31:56.965Z,104253.38
2023-02-05T23:34:26.719Z,104255.22
2023-02-05T23:36:56.635Z,104257.09
2023-02-05T23:39:29.041Z,104260.44
2023-02-05T23:41:58.816Z,104250.91
2023-02-05T23:44:28.807Z,104256.31
2023-02-05T23:46:58.550Z,104258.00
2023-02-05T23:49:28.673Z,104256.13
2023-02-05T23:51:59.214Z,104251.84
2023-02-05T23:54:31.668Z,104252.78
2023-02-05T23:57:01.434Z,104261.84
2023-02-05T23:59:31.338Z,104265.75
